sensor_id;sensor_type;location;lat;lon;timestamp;P1;durP1;ratioP1;P2;durP2;ratioP2
62457;SDS011;48509;52.122;5.250;2023-05-10T00:01:51;61.0;;;40.9;;
62457;SDS011;48509;52.122;5.250;2023-05-10T00:03:27;64.8;;;37.6;;
62457;SDS011;48509;52.122;5.250;2023-05-10T00:05:03;59.7;;;36.4;;
62457;SDS011;48509;52.122;5.250;2023-05-10T00:08:16;61.6;;;37.4;;
62457;SDS011;48509;52.122;5.250;2023-05-10T00:09:52;60.6;;;36.81;;
62457;SDS011;48509;52.122;5.250;2023-05-10T00:11:29;57.4;;;36.9;;
62457;SDS011;48509;52.122;5.250;2023-05-10T00:14:41;61.6;;;37.1;;
62457;SDS011;48509;52.122;5.250;2023-05-10T00:16:17;69.41;;;39.21;;
62457;SDS011;48509;52.122;5.250;2023-05-10T00:17:53;66.3;;;37.9;;
62457;SDS011;48509;52.122;5.250;2023-05-10T00:21:05;55.7;;;35.81;;
62457;SDS011;48509;52.122;5.250;2023-05-10T00:22:41;81.41;;;42.4;;
62457;SDS011;48509;52.122;5.250;2023-05-10T00:24:18;63.5;;;37.81;;
62457;SDS011;48509;52.122;5.250;2023-05-10T00:25:54;54.8;;;38.5;;
62457;SDS011;48509;52.122;5.250;2023-05-10T00:29:06;58.6;;;37.6;;
62457;SDS011;48509;52.122;5.250;2023-05-10T00:30:42;52.8;;;37.1;;
62457;SDS011;48509;52.122;5.250;2023-05-10T00:32:18;59.9;;;39.6;;
62457;SDS011;48509;52.122;5.250;2023-05-10T00:35:31;77.3;;;41.5;;
62457;SDS011;48509;52.122;5.250;2023-05-10T00:37:07;78.5;;;46.7;;
62457;SDS011;48509;52.122;5.250;2023-05-10T00:38:44;77.61;;;47.7;;
62457;SDS011;48509;52.122;5.250;2023-05-10T00:41:56;70.0;;;44.4;;
62457;SDS011;48509;52.122;5.250;2023-05-10T00:43:32;71.0;;;47.3;;
62457;SDS011;48509;52.122;5.250;2023-05-10T00:45:08;82.7;;;48.7;;
62457;SDS011;48509;52.122;5.250;2023-05-10T00:46:44;61.6;;;41.5;;
62457;SDS011;48509;52.122;5.250;2023-05-10T00:49:58;77.2;;;47.2;;
62457;SDS011;48509;52.122;5.250;2023-05-10T00:51:34;79.41;;;46.5;;
62457;SDS011;48509;52.122;5.250;2023-05-10T00:56:22;81.8;;;51.1;;
62457;SDS011;48509;52.122;5.250;2023-05-10T00:57:58;81.5;;;51.8;;
62457;SDS011;48509;52.122;5.250;2023-05-10T00:59:35;102.3;;;58.8;;
62457;SDS011;48509;52.122;5.250;2023-05-10T01:02:49;95.6;;;54.9;;
62457;SDS011;48509;52.122;5.250;2023-05-10T01:04:25;81.11;;;52.3;;
62457;SDS011;48509;52.122;5.250;2023-05-10T01:06:01;92.8;;;56.3;;
62457;SDS011;48509;52.122;5.250;2023-05-10T01:09:13;96.5;;;56.4;;
62457;SDS011;48509;52.122;5.250;2023-05-10T01:10:49;79.2;;;51.8;;
62457;SDS011;48509;52.122;5.250;2023-05-10T01:12:25;120.3;;;62.1;;
62457;SDS011;48509;52.122;5.250;2023-05-10T01:14:01;89.9;;;55.0;;
62457;SDS011;48509;52.122;5.250;2023-05-10T01:17:16;82.6;;;53.5;;
62457;SDS011;48509;52.122;5.250;2023-05-10T01:18:53;98.6;;;57.4;;
62457;SDS011;48509;52.122;5.250;2023-05-10T01:20:31;112.6;;;60.7;;
62457;SDS011;48509;52.122;5.250;2023-05-10T01:22:25;100.6;;;57.2;;
62457;SDS011;48509;52.122;5.250;2023-05-10T01:28:06;107.6;;;59.1;;
62457;SDS011;48509;52.122;5.250;2023-05-10T01:30:05;189.7;;;71.7;;
62457;SDS011;48509;52.122;5.250;2023-05-10T01:32:03;94.7;;;54.5;;
62457;SDS011;48509;52.122;5.250;2023-05-10T01:33:52;93.4;;;52.0;;
62457;SDS011;48509;52.122;5.250;2023-05-10T01:35:37;105.0;;;57.6;;
62457;SDS011;48509;52.122;5.250;2023-05-10T01:37:19;136.81;;;68.5;;
62457;SDS011;48509;52.122;5.250;2023-05-10T01:40:48;87.3;;;53.5;;
62457;SDS011;48509;52.122;5.250;2023-05-10T01:42:38;90.4;;;54.9;;
62457;SDS011;48509;52.122;5.250;2023-05-10T01:44:24;92.9;;;53.7;;
62457;SDS011;48509;52.122;5.250;2023-05-10T01:46:10;136.81;;;65.1;;
62457;SDS011;48509;52.122;5.250;2023-05-10T01:47:54;96.3;;;54.5;;
62457;SDS011;48509;52.122;5.250;2023-05-10T01:49:39;113.1;;;57.0;;
62457;SDS011;48509;52.122;5.250;2023-05-10T01:53:00;100.8;;;56.9;;
62457;SDS011;48509;52.122;5.250;2023-05-10T01:54:38;106.3;;;54.0;;
62457;SDS011;48509;52.122;5.250;2023-05-10T01:56:19;100.6;;;53.5;;
62457;SDS011;48509;52.122;5.250;2023-05-10T01:58:01;129.9;;;63.1;;
62457;SDS011;48509;52.122;5.250;2023-05-10T02:01:21;91.2;;;53.9;;
62457;SDS011;48509;52.122;5.250;2023-05-10T02:02:58;99.9;;;54.4;;
62457;SDS011;48509;52.122;5.250;2023-05-10T02:04:39;79.8;;;48.5;;
62457;SDS011;48509;52.122;5.250;2023-05-10T02:06:18;90.5;;;52.7;;
62457;SDS011;48509;52.122;5.250;2023-05-10T02:09:35;84.2;;;50.0;;
62457;SDS011;48509;52.122;5.250;2023-05-10T02:11:14;73.0;;;48.4;;
62457;SDS011;48509;52.122;5.250;2023-05-10T02:12:53;134.5;;;62.2;;
62457;SDS011;48509;52.122;5.250;2023-05-10T02:16:10;122.1;;;61.3;;
62457;SDS011;48509;52.122;5.250;2023-05-10T02:17:49;177.3;;;70.11;;
62457;SDS011;48509;52.122;5.250;2023-05-10T02:19:29;115.8;;;58.9;;
62457;SDS011;48509;52.122;5.250;2023-05-10T02:21:07;95.4;;;52.7;;
62457;SDS011;48509;52.122;5.250;2023-05-10T02:24:25;139.21;;;64.41;;
62457;SDS011;48509;52.122;5.250;2023-05-10T02:26:02;167.4;;;70.11;;
62457;SDS011;48509;52.122;5.250;2023-05-10T02:27:39;104.9;;;56.6;;
62457;SDS011;48509;52.122;5.250;2023-05-10T02:29:18;112.4;;;59.2;;
62457;SDS011;48509;52.122;5.250;2023-05-10T02:32:32;161.81;;;68.8;;
62457;SDS011;48509;52.122;5.250;2023-05-10T02:34:10;190.8;;;69.41;;
62457;SDS011;48509;52.122;5.250;2023-05-10T02:35:48;97.4;;;53.4;;
62457;SDS011;48509;52.122;5.250;2023-05-10T02:39:04;241.3;;;73.3;;
62457;SDS011;48509;52.122;5.250;2023-05-10T02:40:42;183.2;;;69.0;;
62457;SDS011;48509;52.122;5.250;2023-05-10T02:42:22;171.1;;;61.9;;
62457;SDS011;48509;52.122;5.250;2023-05-10T02:44:04;228.9;;;69.2;;
62457;SDS011;48509;52.122;5.250;2023-05-10T02:47:23;219.9;;;69.8;;
62457;SDS011;48509;52.122;5.250;2023-05-10T02:48:59;192.0;;;67.2;;
62457;SDS011;48509;52.122;5.250;2023-05-10T02:50:36;260.4;;;75.11;;
62457;SDS011;48509;52.122;5.250;2023-05-10T02:52:19;171.8;;;66.6;;
62457;SDS011;48509;52.122;5.250;2023-05-10T02:55:57;243.6;;;76.2;;
62457;SDS011;48509;52.122;5.250;2023-05-10T02:57:38;160.5;;;66.41;;
62457;SDS011;48509;52.122;5.250;2023-05-10T02:59:17;130.31;;;62.5;;
62457;SDS011;48509;52.122;5.250;2023-05-10T03:00:53;201.0;;;73.5;;
62457;SDS011;48509;52.122;5.250;2023-05-10T03:04:05;202.9;;;73.7;;
62457;SDS011;48509;52.122;5.250;2023-05-10T03:05:42;229.3;;;78.8;;
62457;SDS011;48509;52.122;5.250;2023-05-10T03:07:19;185.8;;;71.2;;
62457;SDS011;48509;52.122;5.250;2023-05-10T03:10:31;229.0;;;81.61;;
62457;SDS011;48509;52.122;5.250;2023-05-10T03:12:12;141.5;;;66.41;;
62457;SDS011;48509;52.122;5.250;2023-05-10T03:14:08;151.4;;;67.91;;
62457;SDS011;48509;52.122;5.250;2023-05-10T03:15:56;152.31;;;68.1;;
62457;SDS011;48509;52.122;5.250;2023-05-10T03:17:39;164.9;;;69.5;;
62457;SDS011;48509;52.122;5.250;2023-05-10T03:21:07;192.5;;;76.8;;
62457;SDS011;48509;52.122;5.250;2023-05-10T03:22:47;141.6;;;67.5;;
62457;SDS011;48509;52.122;5.250;2023-05-10T03:24:27;111.4;;;61.1;;
62457;SDS011;48509;52.122;5.250;2023-05-10T03:26:04;163.81;;;73.41;;
62457;SDS011;48509;52.122;5.250;2023-05-10T03:29:20;149.81;;;67.8;;
62457;SDS011;48509;52.122;5.250;2023-05-10T03:30:59;220.0;;;80.5;;
62457;SDS011;48509;52.122;5.250;2023-05-10T03:32:35;147.6;;;69.0;;
62457;SDS011;48509;52.122;5.250;2023-05-10T03:34:11;177.6;;;75.7;;
62457;SDS011;48509;52.122;5.250;2023-05-10T03:37:23;134.4;;;66.91;;
62457;SDS011;48509;52.122;5.250;2023-05-10T03:38:59;180.6;;;72.61;;
62457;SDS011;48509;52.122;5.250;2023-05-10T03:40:35;220.8;;;80.91;;
62457;SDS011;48509;52.122;5.250;2023-05-10T03:43:48;213.5;;;79.2;;
62457;SDS011;48509;52.122;5.250;2023-05-10T03:45:24;171.5;;;71.5;;
62457;SDS011;48509;52.122;5.250;2023-05-10T03:47:00;194.6;;;75.7;;
62457;SDS011;48509;52.122;5.250;2023-05-10T03:50:13;151.1;;;69.8;;
62457;SDS011;48509;52.122;5.250;2023-05-10T03:51:49;250.8;;;85.5;;
62457;SDS011;48509;52.122;5.250;2023-05-10T03:55:01;136.31;;;66.91;;
62457;SDS011;48509;52.122;5.250;2023-05-10T03:58:14;148.6;;;67.2;;
62457;SDS011;48509;52.122;5.250;2023-05-10T03:59:51;135.0;;;65.5;;
62457;SDS011;48509;52.122;5.250;2023-05-10T04:01:27;126.8;;;63.3;;
62457;SDS011;48509;52.122;5.250;2023-05-10T04:04:39;138.71;;;66.0;;
62457;SDS011;48509;52.122;5.250;2023-05-10T04:06:15;192.4;;;75.5;;
62457;SDS011;48509;52.122;5.250;2023-05-10T04:13:13;171.4;;;70.0;;
62457;SDS011;48509;52.122;5.250;2023-05-10T04:14:49;138.6;;;64.1;;
62457;SDS011;48509;52.122;5.250;2023-05-10T04:16:25;239.7;;;79.61;;
62457;SDS011;48509;52.122;5.250;2023-05-10T04:18:01;208.4;;;77.0;;
62457;SDS011;48509;52.122;5.250;2023-05-10T04:21:14;128.9;;;63.1;;
62457;SDS011;48509;52.122;5.250;2023-05-10T04:22:50;123.2;;;61.2;;
62457;SDS011;48509;52.122;5.250;2023-05-10T04:24:26;147.21;;;66.2;;
62457;SDS011;48509;52.122;5.250;2023-05-10T04:27:38;182.0;;;72.91;;
62457;SDS011;48509;52.122;5.250;2023-05-10T04:29:14;137.5;;;63.5;;
62457;SDS011;48509;52.122;5.250;2023-05-10T04:30:50;160.4;;;68.5;;
62457;SDS011;48509;52.122;5.250;2023-05-10T04:34:03;153.1;;;69.11;;
62457;SDS011;48509;52.122;5.250;2023-05-10T04:35:39;126.1;;;62.0;;
62457;SDS011;48509;52.122;5.250;2023-05-10T04:37:15;110.7;;;57.0;;
62457;SDS011;48509;52.122;5.250;2023-05-10T04:40:27;114.8;;;59.0;;
62457;SDS011;48509;52.122;5.250;2023-05-10T04:42:03;108.7;;;56.3;;
62457;SDS011;48509;52.122;5.250;2023-05-10T04:43:39;166.6;;;69.11;;
62457;SDS011;48509;52.122;5.250;2023-05-10T04:45:16;160.6;;;69.61;;
62457;SDS011;48509;52.122;5.250;2023-05-10T04:48:28;122.0;;;64.5;;
62457;SDS011;48509;52.122;5.250;2023-05-10T04:50:04;149.5;;;69.3;;
62457;SDS011;48509;52.122;5.250;2023-05-10T04:51:42;146.6;;;67.1;;
62457;SDS011;48509;52.122;5.250;2023-05-10T04:54:54;147.0;;;66.41;;
62457;SDS011;48509;52.122;5.250;2023-05-10T04:56:30;150.21;;;70.2;;
62457;SDS011;48509;52.122;5.250;2023-05-10T04:58:07;126.9;;;61.9;;
62457;SDS011;48509;52.122;5.250;2023-05-10T05:01:19;168.7;;;70.3;;
62457;SDS011;48509;52.122;5.250;2023-05-10T05:02:55;102.3;;;55.8;;
62457;SDS011;48509;52.122;5.250;2023-05-10T05:04:31;138.31;;;62.6;;
62457;SDS011;48509;52.122;5.250;2023-05-10T05:07:43;120.3;;;61.0;;
62457;SDS011;48509;52.122;5.250;2023-05-10T05:09:20;137.6;;;64.7;;
62457;SDS011;48509;52.122;5.250;2023-05-10T05:10:56;150.5;;;67.91;;
62457;SDS011;48509;52.122;5.250;2023-05-10T05:12:32;169.7;;;72.5;;
62457;SDS011;48509;52.122;5.250;2023-05-10T05:15:44;127.0;;;63.5;;
62457;SDS011;48509;52.122;5.250;2023-05-10T05:17:21;109.6;;;58.1;;
62457;SDS011;48509;52.122;5.250;2023-05-10T05:18:57;142.81;;;68.2;;
62457;SDS011;48509;52.122;5.250;2023-05-10T05:22:16;109.5;;;56.6;;
62457;SDS011;48509;52.122;5.250;2023-05-10T05:23:53;132.81;;;66.1;;
62457;SDS011;48509;52.122;5.250;2023-05-10T05:25:31;105.7;;;57.5;;
62457;SDS011;48509;52.122;5.250;2023-05-10T05:27:07;125.5;;;62.6;;
62457;SDS011;48509;52.122;5.250;2023-05-10T05:30:18;95.9;;;53.4;;
62457;SDS011;48509;52.122;5.250;2023-05-10T05:31:54;101.4;;;56.3;;
62457;SDS011;48509;52.122;5.250;2023-05-10T05:33:32;101.1;;;54.7;;
62457;SDS011;48509;52.122;5.250;2023-05-10T05:36:45;98.0;;;53.4;;
62457;SDS011;48509;52.122;5.250;2023-05-10T05:38:22;189.6;;;72.8;;
62457;SDS011;48509;52.122;5.250;2023-05-10T05:39:59;123.1;;;61.2;;
62457;SDS011;48509;52.122;5.250;2023-05-10T05:43:15;88.2;;;50.3;;
62457;SDS011;48509;52.122;5.250;2023-05-10T05:44:53;96.4;;;52.3;;
62457;SDS011;48509;52.122;5.250;2023-05-10T05:46:30;107.2;;;56.4;;
62457;SDS011;48509;52.122;5.250;2023-05-10T05:48:08;121.4;;;62.0;;
62457;SDS011;48509;52.122;5.250;2023-05-10T05:51:24;109.1;;;59.6;;
62457;SDS011;48509;52.122;5.250;2023-05-10T05:53:01;113.0;;;59.3;;
62457;SDS011;48509;52.122;5.250;2023-05-10T05:54:37;121.2;;;60.9;;
62457;SDS011;48509;52.122;5.250;2023-05-10T05:57:52;118.6;;;60.3;;
62457;SDS011;48509;52.122;5.250;2023-05-10T05:59:30;104.5;;;56.1;;
62457;SDS011;48509;52.122;5.250;2023-05-10T06:01:07;94.1;;;55.2;;
62457;SDS011;48509;52.122;5.250;2023-05-10T06:02:45;118.9;;;60.9;;
62457;SDS011;48509;52.122;5.250;2023-05-10T06:06:01;102.1;;;53.9;;
62457;SDS011;48509;52.122;5.250;2023-05-10T06:07:39;107.2;;;54.4;;
62457;SDS011;48509;52.122;5.250;2023-05-10T06:09:16;119.6;;;58.0;;
62457;SDS011;48509;52.122;5.250;2023-05-10T06:12:30;121.6;;;55.3;;
62457;SDS011;48509;52.122;5.250;2023-05-10T06:14:08;117.2;;;54.6;;
62457;SDS011;48509;52.122;5.250;2023-05-10T06:15:45;113.7;;;53.6;;
62457;SDS011;48509;52.122;5.250;2023-05-10T06:17:23;112.8;;;52.5;;
62457;SDS011;48509;52.122;5.250;2023-05-10T06:20:38;99.6;;;49.5;;
62457;SDS011;48509;52.122;5.250;2023-05-10T06:22:17;88.2;;;47.5;;
62457;SDS011;48509;52.122;5.250;2023-05-10T06:23:55;83.7;;;44.8;;
62457;SDS011;48509;52.122;5.250;2023-05-10T06:27:11;89.4;;;45.5;;
62457;SDS011;48509;52.122;5.250;2023-05-10T06:28:49;99.1;;;45.5;;
62457;SDS011;48509;52.122;5.250;2023-05-10T06:30:26;76.41;;;39.1;;
62457;SDS011;48509;52.122;5.250;2023-05-10T06:32:04;50.8;;;31.4;;
62457;SDS011;48509;52.122;5.250;2023-05-10T06:35:19;49.9;;;30.8;;
62457;SDS011;48509;52.122;5.250;2023-05-10T06:36:57;45.5;;;28.2;;
62457;SDS011;48509;52.122;5.250;2023-05-10T06:38:35;51.6;;;29.7;;
62457;SDS011;48509;52.122;5.250;2023-05-10T06:41:51;43.5;;;27.0;;
62457;SDS011;48509;52.122;5.250;2023-05-10T06:43:28;48.0;;;27.5;;
62457;SDS011;48509;52.122;5.250;2023-05-10T06:45:07;36.21;;;24.7;;
62457;SDS011;48509;52.122;5.250;2023-05-10T06:46:44;39.31;;;25.3;;
62457;SDS011;48509;52.122;5.250;2023-05-10T06:49:58;50.1;;;28.8;;
62457;SDS011;48509;52.122;5.250;2023-05-10T06:51:35;35.9;;;24.6;;
62457;SDS011;48509;52.122;5.250;2023-05-10T06:53:11;31.0;;;22.7;;
62457;SDS011;48509;52.122;5.250;2023-05-10T06:56:26;38.1;;;24.2;;
62457;SDS011;48509;52.122;5.250;2023-05-10T06:58:03;35.0;;;24.1;;
62457;SDS011;48509;52.122;5.250;2023-05-10T06:59:40;39.81;;;25.1;;
62457;SDS011;48509;52.122;5.250;2023-05-10T07:01:18;40.5;;;24.0;;
62457;SDS011;48509;52.122;5.250;2023-05-10T07:04:32;37.4;;;23.5;;
62457;SDS011;48509;52.122;5.250;2023-05-10T07:06:08;39.21;;;24.1;;
62457;SDS011;48509;52.122;5.250;2023-05-10T07:07:45;41.2;;;25.8;;
62457;SDS011;48509;52.122;5.250;2023-05-10T07:11:01;44.4;;;25.7;;
62457;SDS011;48509;52.122;5.250;2023-05-10T07:12:40;30.9;;;22.2;;
62457;SDS011;48509;52.122;5.250;2023-05-10T07:14:18;33.71;;;22.9;;
62457;SDS011;48509;52.122;5.250;2023-05-10T07:15:56;29.3;;;20.41;;
62457;SDS011;48509;52.122;5.250;2023-05-10T07:19:11;35.5;;;23.4;;
62457;SDS011;48509;52.122;5.250;2023-05-10T07:20:48;36.6;;;21.9;;
62457;SDS011;48509;52.122;5.250;2023-05-10T07:22:26;37.4;;;24.1;;
62457;SDS011;48509;52.122;5.250;2023-05-10T07:25:41;31.4;;;21.0;;
62457;SDS011;48509;52.122;5.250;2023-05-10T07:27:19;35.31;;;24.1;;
62457;SDS011;48509;52.122;5.250;2023-05-10T07:28:56;36.71;;;24.1;;
62457;SDS011;48509;52.122;5.250;2023-05-10T07:30:33;36.1;;;23.8;;
62457;SDS011;48509;52.122;5.250;2023-05-10T07:33:47;43.8;;;25.7;;
62457;SDS011;48509;52.122;5.250;2023-05-10T07:35:25;36.0;;;22.8;;
62457;SDS011;48509;52.122;5.250;2023-05-10T07:37:02;36.31;;;23.3;;
62457;SDS011;48509;52.122;5.250;2023-05-10T07:40:18;47.0;;;26.1;;
62457;SDS011;48509;52.122;5.250;2023-05-10T07:41:55;45.4;;;24.5;;
62457;SDS011;48509;52.122;5.250;2023-05-10T07:43:33;33.9;;;21.6;;
62457;SDS011;48509;52.122;5.250;2023-05-10T07:45:11;32.21;;;21.1;;
62457;SDS011;48509;52.122;5.250;2023-05-10T07:48:26;34.9;;;21.2;;
62457;SDS011;48509;52.122;5.250;2023-05-10T07:50:03;34.71;;;21.0;;
62457;SDS011;48509;52.122;5.250;2023-05-10T07:51:40;32.5;;;20.8;;
62457;SDS011;48509;52.122;5.250;2023-05-10T07:54:55;30.8;;;20.2;;
62457;SDS011;48509;52.122;5.250;2023-05-10T07:56:32;31.0;;;20.6;;
62457;SDS011;48509;52.122;5.250;2023-05-10T07:58:09;32.21;;;21.5;;
62457;SDS011;48509;52.122;5.250;2023-05-10T08:01:24;30.0;;;19.5;;
62457;SDS011;48509;52.122;5.250;2023-05-10T08:03:02;30.4;;;19.91;;
62457;SDS011;48509;52.122;5.250;2023-05-10T08:04:39;30.6;;;20.5;;
62457;SDS011;48509;52.122;5.250;2023-05-10T08:06:17;27.4;;;17.2;;
62457;SDS011;48509;52.122;5.250;2023-05-10T08:09:33;26.2;;;17.91;;
62457;SDS011;48509;52.122;5.250;2023-05-10T08:11:10;25.1;;;16.9;;
62457;SDS011;48509;52.122;5.250;2023-05-10T08:12:48;24.3;;;16.9;;
62457;SDS011;48509;52.122;5.250;2023-05-10T08:16:04;33.21;;;21.5;;
62457;SDS011;48509;52.122;5.250;2023-05-10T08:17:42;31.3;;;20.8;;
62457;SDS011;48509;52.122;5.250;2023-05-10T08:19:20;23.6;;;17.3;;
62457;SDS011;48509;52.122;5.250;2023-05-10T08:20:58;21.3;;;16.7;;
62457;SDS011;48509;52.122;5.250;2023-05-10T08:24:12;25.1;;;17.7;;
62457;SDS011;48509;52.122;5.250;2023-05-10T08:25:50;27.4;;;18.11;;
62457;SDS011;48509;52.122;5.250;2023-05-10T08:27:26;23.0;;;17.0;;
62457;SDS011;48509;52.122;5.250;2023-05-10T08:30:40;27.1;;;18.11;;
62457;SDS011;48509;52.122;5.250;2023-05-10T08:32:18;27.3;;;18.2;;
62457;SDS011;48509;52.122;5.250;2023-05-10T08:33:55;27.8;;;18.91;;
62457;SDS011;48509;52.122;5.250;2023-05-10T08:35:33;28.0;;;18.7;;
62457;SDS011;48509;52.122;5.250;2023-05-10T08:38:49;31.1;;;19.3;;
62457;SDS011;48509;52.122;5.250;2023-05-10T08:40:28;23.8;;;17.2;;
62457;SDS011;48509;52.122;5.250;2023-05-10T08:42:06;24.6;;;17.91;;
62457;SDS011;48509;52.122;5.250;2023-05-10T08:43:46;25.8;;;17.8;;
62457;SDS011;48509;52.122;5.250;2023-05-10T08:47:08;23.8;;;17.8;;
62457;SDS011;48509;52.122;5.250;2023-05-10T08:48:48;25.9;;;18.91;;
62457;SDS011;48509;52.122;5.250;2023-05-10T08:50:26;23.4;;;16.9;;
62457;SDS011;48509;52.122;5.250;2023-05-10T08:52:06;27.8;;;19.3;;
62457;SDS011;48509;52.122;5.250;2023-05-10T08:55:22;33.4;;;18.91;;
62457;SDS011;48509;52.122;5.250;2023-05-10T08:57:00;27.9;;;18.0;;
62457;SDS011;48509;52.122;5.250;2023-05-10T08:58:38;25.6;;;18.7;;
62457;SDS011;48509;52.122;5.250;2023-05-10T09:01:55;23.9;;;16.8;;
62457;SDS011;48509;52.122;5.250;2023-05-10T09:03:34;22.6;;;16.9;;
62457;SDS011;48509;52.122;5.250;2023-05-10T09:05:12;28.4;;;18.11;;
62457;SDS011;48509;52.122;5.250;2023-05-10T09:06:48;19.61;;;16.0;;
62457;SDS011;48509;52.122;5.250;2023-05-10T09:10:05;25.2;;;17.91;;
62457;SDS011;48509;52.122;5.250;2023-05-10T09:11:43;29.2;;;19.0;;
62457;SDS011;48509;52.122;5.250;2023-05-10T09:13:21;23.5;;;17.2;;
62457;SDS011;48509;52.122;5.250;2023-05-10T09:16:38;18.91;;;15.6;;
62457;SDS011;48509;52.122;5.250;2023-05-10T09:18:18;20.9;;;16.0;;
62457;SDS011;48509;52.122;5.250;2023-05-10T09:19:57;22.6;;;15.9;;
62457;SDS011;48509;52.122;5.250;2023-05-10T09:21:36;23.6;;;15.3;;
62457;SDS011;48509;52.122;5.250;2023-05-10T09:25:03;21.2;;;15.0;;
62457;SDS011;48509;52.122;5.250;2023-05-10T09:26:45;26.8;;;15.8;;
62457;SDS011;48509;52.122;5.250;2023-05-10T09:28:24;20.6;;;14.8;;
62457;SDS011;48509;52.122;5.250;2023-05-10T09:30:02;22.0;;;15.3;;
62457;SDS011;48509;52.122;5.250;2023-05-10T09:33:23;22.0;;;15.3;;
62457;SDS011;48509;52.122;5.250;2023-05-10T09:35:05;21.1;;;15.9;;
62457;SDS011;48509;52.122;5.250;2023-05-10T09:36:52;25.0;;;15.9;;
62457;SDS011;48509;52.122;5.250;2023-05-10T09:38:33;20.5;;;16.2;;
62457;SDS011;48509;52.122;5.250;2023-05-10T09:40:23;23.1;;;16.61;;
62457;SDS011;48509;52.122;5.250;2023-05-10T09:43:42;22.1;;;17.0;;
62457;SDS011;48509;52.122;5.250;2023-05-10T09:45:18;22.3;;;16.8;;
62457;SDS011;48509;52.122;5.250;2023-05-10T09:46:57;23.8;;;16.3;;
62457;SDS011;48509;52.122;5.250;2023-05-10T09:48:38;23.9;;;16.3;;
62457;SDS011;48509;52.122;5.250;2023-05-10T09:51:59;19.91;;;14.9;;
62457;SDS011;48509;52.122;5.250;2023-05-10T09:53:38;21.4;;;15.4;;
62457;SDS011;48509;52.122;5.250;2023-05-10T09:55:17;21.9;;;14.9;;
62457;SDS011;48509;52.122;5.250;2023-05-10T09:58:35;15.7;;;12.8;;
62457;SDS011;48509;52.122;5.250;2023-05-10T10:00:16;19.3;;;14.0;;
62457;SDS011;48509;52.122;5.250;2023-05-10T10:01:56;18.11;;;12.6;;
62457;SDS011;48509;52.122;5.250;2023-05-10T10:03:40;19.41;;;14.4;;
62457;SDS011;48509;52.122;5.250;2023-05-10T10:05:19;20.0;;;12.3;;
62457;SDS011;48509;52.122;5.250;2023-05-10T10:08:36;16.0;;;12.1;;
62457;SDS011;48509;52.122;5.250;2023-05-10T10:10:15;15.4;;;11.3;;
62457;SDS011;48509;52.122;5.250;2023-05-10T10:11:53;15.9;;;12.5;;
62457;SDS011;48509;52.122;5.250;2023-05-10T10:15:09;18.2;;;12.1;;
62457;SDS011;48509;52.122;5.250;2023-05-10T10:16:47;14.4;;;11.6;;
62457;SDS011;48509;52.122;5.250;2023-05-10T10:18:26;14.5;;;10.5;;
62457;SDS011;48509;52.122;5.250;2023-05-10T10:20:05;17.7;;;11.8;;
62457;SDS011;48509;52.122;5.250;2023-05-10T10:23:20;15.9;;;11.2;;
62457;SDS011;48509;52.122;5.250;2023-05-10T10:24:58;14.7;;;11.6;;
62457;SDS011;48509;52.122;5.250;2023-05-10T10:26:36;14.1;;;10.9;;
62457;SDS011;48509;52.122;5.250;2023-05-10T10:30:05;17.61;;;10.9;;
62457;SDS011;48509;52.122;5.250;2023-05-10T10:31:55;17.91;;;12.4;;
62457;SDS011;48509;52.122;5.250;2023-05-10T10:33:47;15.0;;;10.6;;
62457;SDS011;48509;52.122;5.250;2023-05-10T10:35:36;14.8;;;10.0;;
62457;SDS011;48509;52.122;5.250;2023-05-10T10:37:14;12.4;;;9.6;;
62457;SDS011;48509;52.122;5.250;2023-05-10T10:38:54;13.2;;;10.0;;
62457;SDS011;48509;52.122;5.250;2023-05-10T10:42:11;14.5;;;10.8;;
62457;SDS011;48509;52.122;5.250;2023-05-10T10:43:48;13.7;;;10.4;;
62457;SDS011;48509;52.122;5.250;2023-05-10T10:45:26;14.2;;;10.5;;
62457;SDS011;48509;52.122;5.250;2023-05-10T10:48:47;11.9;;;9.21;;
62457;SDS011;48509;52.122;5.250;2023-05-10T10:50:25;10.8;;;7.6;;
62457;SDS011;48509;52.122;5.250;2023-05-10T10:52:21;12.1;;;7.1;;
62457;SDS011;48509;52.122;5.250;2023-05-10T10:54:08;8.31;;;6.6;;
62457;SDS011;48509;52.122;5.250;2023-05-10T10:55:46;9.6;;;6.4;;
62457;SDS011;48509;52.122;5.250;2023-05-10T10:59:03;9.71;;;6.4;;
62457;SDS011;48509;52.122;5.250;2023-05-10T11:00:39;11.4;;;7.5;;
62457;SDS011;48509;52.122;5.250;2023-05-10T11:02:49;11.2;;;7.2;;
62457;SDS011;48509;52.122;5.250;2023-05-10T11:04:26;10.4;;;7.3;;
62457;SDS011;48509;52.122;5.250;2023-05-10T11:06:02;11.7;;;7.8;;
62457;SDS011;48509;52.122;5.250;2023-05-10T11:09:26;9.9;;;7.0;;
62457;SDS011;48509;52.122;5.250;2023-05-10T11:11:03;13.3;;;8.6;;
62457;SDS011;48509;52.122;5.250;2023-05-10T11:12:50;11.0;;;7.3;;
62457;SDS011;48509;52.122;5.250;2023-05-10T11:14:27;11.5;;;7.8;;
62457;SDS011;48509;52.122;5.250;2023-05-10T11:17:50;10.0;;;7.3;;
62457;SDS011;48509;52.122;5.250;2023-05-10T11:19:27;10.6;;;7.4;;
62457;SDS011;48509;52.122;5.250;2023-05-10T11:21:03;15.8;;;8.4;;
62457;SDS011;48509;52.122;5.250;2023-05-10T11:24:31;9.6;;;7.4;;
62457;SDS011;48509;52.122;5.250;2023-05-10T11:26:07;11.6;;;6.9;;
62457;SDS011;48509;52.122;5.250;2023-05-10T11:27:44;11.6;;;7.4;;
62457;SDS011;48509;52.122;5.250;2023-05-10T11:29:23;11.3;;;7.1;;
62457;SDS011;48509;52.122;5.250;2023-05-10T11:32:36;12.7;;;8.71;;
62457;SDS011;48509;52.122;5.250;2023-05-10T11:34:22;10.5;;;6.9;;
62457;SDS011;48509;52.122;5.250;2023-05-10T11:36:00;8.1;;;6.0;;
62457;SDS011;48509;52.122;5.250;2023-05-10T11:37:36;10.5;;;6.3;;
62457;SDS011;48509;52.122;5.250;2023-05-10T11:40:49;8.1;;;6.1;;
62457;SDS011;48509;52.122;5.250;2023-05-10T11:42:27;8.9;;;5.6;;
62457;SDS011;48509;52.122;5.250;2023-05-10T11:44:04;8.81;;;5.8;;
62457;SDS011;48509;52.122;5.250;2023-05-10T11:47:18;10.0;;;6.1;;
62457;SDS011;48509;52.122;5.250;2023-05-10T11:48:56;9.31;;;5.8;;
62457;SDS011;48509;52.122;5.250;2023-05-10T11:50:34;9.1;;;5.5;;
62457;SDS011;48509;52.122;5.250;2023-05-10T11:52:10;10.6;;;5.4;;
62457;SDS011;48509;52.122;5.250;2023-05-10T11:55:25;6.3;;;4.91;;
62457;SDS011;48509;52.122;5.250;2023-05-10T11:57:01;8.5;;;4.8;;
62457;SDS011;48509;52.122;5.250;2023-05-10T11:58:37;9.21;;;4.91;;
62457;SDS011;48509;52.122;5.250;2023-05-10T12:01:51;9.0;;;6.5;;
62457;SDS011;48509;52.122;5.250;2023-05-10T12:03:28;10.8;;;5.9;;
62457;SDS011;48509;52.122;5.250;2023-05-10T12:05:05;9.1;;;6.4;;
62457;SDS011;48509;52.122;5.250;2023-05-10T12:06:42;8.9;;;6.3;;
62457;SDS011;48509;52.122;5.250;2023-05-10T12:10:06;8.2;;;5.6;;
62457;SDS011;48509;52.122;5.250;2023-05-10T12:11:43;6.7;;;5.2;;
62457;SDS011;48509;52.122;5.250;2023-05-10T12:13:20;7.9;;;5.6;;
62457;SDS011;48509;52.122;5.250;2023-05-10T12:16:32;9.31;;;6.3;;
62457;SDS011;48509;52.122;5.250;2023-05-10T12:18:09;6.6;;;5.4;;
62457;SDS011;48509;52.122;5.250;2023-05-10T12:19:46;8.1;;;5.4;;
62457;SDS011;48509;52.122;5.250;2023-05-10T12:21:22;7.8;;;4.41;;
62457;SDS011;48509;52.122;5.250;2023-05-10T12:24:34;6.8;;;5.0;;
62457;SDS011;48509;52.122;5.250;2023-05-10T12:26:11;8.71;;;4.91;;
62457;SDS011;48509;52.122;5.250;2023-05-10T12:27:50;7.3;;;4.5;;
62457;SDS011;48509;52.122;5.250;2023-05-10T12:31:06;8.2;;;4.41;;
62457;SDS011;48509;52.122;5.250;2023-05-10T12:32:43;6.2;;;3.9;;
62457;SDS011;48509;52.122;5.250;2023-05-10T12:34:23;5.4;;;3.9;;
62457;SDS011;48509;52.122;5.250;2023-05-10T12:36:00;5.7;;;3.7;;
62457;SDS011;48509;52.122;5.250;2023-05-10T12:39:14;6.4;;;4.5;;
62457;SDS011;48509;52.122;5.250;2023-05-10T12:40:50;9.4;;;4.61;;
62457;SDS011;48509;52.122;5.250;2023-05-10T12:42:26;7.4;;;4.41;;